Capitan Corbeta, Uruguay

4:27 PM UYST on December 26, 2014 (GMT -0200)
Capitan Curbelo International | Change Station
CLOSE
Current Station
Airport
Location: Capitan Corbeta,
Elevation: 98 ft
Nearby Weather Stations

Elev 98 ft 34.86 °S, 55.09 °W | Updated 27 minutes ago

Heavy Thunderstorms and Rain
Heavy Thunderstorm Rain
66 °F
Feels Like 66 °F
N
18
Wind Variable Wind from NE
Gusts 31 mph

Today
High -- | Low -- °F
--% Chance of Precip.
Yesterday
High -- | Low -- °F
Precip. -- in
6:26 AM 8:55 PM
Waxing Crescent, 28% visible
Pressure 29.92 in
Visibility 0.4 miles
Clouds Mostly Cloudy 2300 ft
Few 3000 ft
Dew Point 59 °F
Humidity 78%
Rainfall 0.00 in
Snow Depth Not available.
UV 10 out of 12
Pollen Not available.
Air Quality Not available.
Flu Activity Not available.
METAR SULS 261800Z 05016G27KT 0700 +TSRA BKN023 FEW030CB 19/15 Q1013

More Conditions Fewer Conditions

Pressure 29.92 in
Visibility 0.4 miles
Clouds Mostly Cloudy 2300 ft
Few 3000 ft
Dew Point 59 °F
Humidity 78%
Rainfall 0.00 in
Snow Depth Not available.
UV 10 out of 12
Pollen Not available.
Air Quality Not available.
Flu Activity Not available.
METAR SULS 261800Z 05016G27KT 0700 +TSRA BKN023 FEW030CB 19/15 Q1013

More Conditions Fewer Conditions

10-Day Weather Forecast

Almanac

Astronomy

Dec. 26, 2014 Rise Set
Actual Time
Civil Twilight
Nautical Twilight
Astronomical Twilight
Moon
Length of Visible Light
Length of Day
Tomorrow will be .
, % of the Moon is Illuminated

Today's Extremes

Country Highs Country Lows

Community

WunderPhotos

Upload Photos

1,780,661 photos uploaded!

WunderBlogs® & News

Nearby

Air Quality

  Air Quality AQ Index Pollutant
Not available.

Snow Depth

Station Depth Elevation

Earthquake Activity

City Distance Mag. Time & Date
Minimum magnitude displayed is 2.5.

Coastal Water Temperatures

Place Temperature

Nearby Weather Stations